createdAt,value
2019-03-29T08:46:30.245Z,33.9361
2019-03-29T08:48:30.460Z,33.8079
2019-03-29T08:50:31.683Z,34.6029
2019-03-29T08:51:48.430Z,33.7163
2019-03-29T08:52:55.359Z,36.1456
2019-03-29T08:54:56.570Z,33.9345
2019-03-29T08:56:57.757Z,33.6049
2019-03-29T08:58:58.953Z,33.7758
2019-03-29T09:01:00.131Z,34.0948
2019-03-29T09:03:01.496Z,34.3694
2019-03-29T09:05:02.696Z,34.2886
2019-03-29T09:07:03.885Z,34.2290
2019-03-29T09:09:05.079Z,33.9681
2019-03-29T09:11:07.784Z,34.3465
2019-03-29T09:13:09.096Z,33.2525
2019-03-29T09:15:10.298Z,34.2016
2019-03-29T09:17:11.502Z,33.7743
2019-03-29T09:19:12.718Z,34.1497
2019-03-29T09:21:13.940Z,33.9391
2019-03-29T09:23:15.144Z,33.5134
2019-03-29T09:25:16.337Z,33.1029
2019-03-29T09:27:17.514Z,33.2799
2019-03-29T09:29:18.754Z,33.1289
2019-03-29T09:31:19.951Z,32.2789
2019-03-29T09:33:21.154Z,33.3318
2019-03-29T09:35:22.348Z,33.8994
2019-03-29T09:37:23.551Z,34.4305
2019-03-29T09:39:24.745Z,33.5927
2019-03-29T09:41:25.936Z,33.7850
2019-03-29T09:43:27.149Z,32.9183
2019-03-29T09:45:41.118Z,33.8430
2019-03-29T09:47:56.186Z,33.4646
2019-03-29T09:49:55.079Z,33.6187
2019-03-29T09:52:03.609Z,33.8567
2019-03-29T09:54:10.926Z,34.6807
2019-03-29T10:19:22.761Z,35.0668
2019-03-29T10:20:45.341Z,33.7896
2019-03-29T10:22:46.163Z,34.5480
2019-03-29T10:23:55.448Z,34.1772
2019-03-29T10:25:58.609Z,33.9437
2019-03-29T10:27:59.842Z,33.7423
2019-03-29T10:30:09.904Z,31.5267
2019-03-29T10:32:12.913Z,31.5679
2019-03-29T10:32:55.514Z,30.8125
2019-03-29T10:35:08.340Z,30.6752
2019-03-29T10:37:10.153Z,30.7942
2019-03-29T10:39:19.858Z,39.1653
2019-03-29T10:41:46.533Z,37.7722
2019-03-29T10:42:18.537Z,37.4960
2019-03-29T10:50:11.407Z,32.8603
2019-03-29T10:50:26.550Z,31.7510
2019-03-29T10:51:09.570Z,31.8929
2019-03-29T10:53:11.407Z,31.0567
2019-03-29T10:55:13.380Z,30.9331
2019-03-29T10:57:59.655Z,30.7271
2019-03-29T11:00:01.395Z,30.5104
2019-03-29T11:02:03.369Z,30.6844
2019-03-29T11:04:05.380Z,30.5531
2019-03-29T11:06:07.385Z,30.4326
2019-03-29T11:08:11.560Z,30.2724
2019-03-29T11:10:14.405Z,30.0450
2019-03-29T11:12:16.394Z,30.1350
2019-03-29T11:14:19.370Z,30.0481
2019-03-29T11:16:21.367Z,30.0481
2019-03-29T11:18:23.382Z,29.8528
2019-03-29T11:20:25.385Z,29.8146
2019-03-29T11:22:27.390Z,29.7383
2019-03-29T11:24:29.450Z,29.7093
2019-03-29T11:26:31.389Z,29.7017
2019-03-29T11:28:33.409Z,29.2058
2019-03-29T11:30:42.086Z,29.3629
2019-03-29T11:32:42.403Z,29.4408
2019-03-29T11:34:44.397Z,29.4987
2019-03-29T11:36:46.391Z,29.8100
2019-03-29T11:38:48.387Z,30.4021
2019-03-29T11:40:50.413Z,32.0317
2019-03-29T11:42:52.387Z,32.4758
2019-03-29T11:44:54.510Z,32.8557
2019-03-29T11:46:56.401Z,33.5546
2019-03-29T11:48:58.418Z,34.0536
2019-03-29T11:51:00.436Z,33.4325
2019-03-29T11:53:03.390Z,32.7367
2019-03-29T11:55:05.392Z,32.3522
2019-03-29T11:57:07.407Z,32.0821
2019-03-29T11:59:09.386Z,31.7021
2019-03-29T12:01:11.387Z,31.4778
2019-03-29T12:03:13.415Z,31.1742
2019-03-29T12:05:15.411Z,31.1711
2019-03-29T12:07:17.404Z,31.0643
2019-03-29T12:09:20.380Z,30.5928
2019-03-29T12:11:22.395Z,30.5165
2019-03-29T12:13:24.412Z,30.3655
2019-03-29T12:15:26.381Z,30.1717
2019-03-29T12:17:28.376Z,30.1686
2019-03-29T12:19:30.395Z,30.4524
2019-03-29T12:21:32.407Z,30.4692
2019-03-29T12:23:34.393Z,30.3838
2019-03-29T12:25:36.402Z,30.2220
2019-03-29T12:27:38.403Z,30.0771
2019-03-29T12:29:40.407Z,30.9239
2019-03-29T12:31:42.398Z,30.3059
2019-03-29T12:33:44.398Z,30.3471
2019-03-29T12:35:46.417Z,30.1579
2019-03-29T12:37:48.397Z,30.0816
2019-03-29T12:39:50.464Z,30.1411
2019-03-29T12:41:52.394Z,30.1549
2019-03-29T12:43:55.906Z,30.0404
2019-03-29T12:45:58.400Z,29.9336
2019-03-29T12:48:00.432Z,30.0084
2019-03-29T12:50:02.421Z,29.7749
2019-03-29T12:52:04.420Z,29.7337
2019-03-29T12:54:06.382Z,29.6773
2019-03-29T12:56:08.396Z,29.6330
2019-03-29T12:58:10.403Z,29.6635
2019-03-29T13:00:12.400Z,29.5735
2019-03-29T13:02:14.410Z,29.5735
2019-03-29T13:04:16.412Z,29.6773
2019-03-29T13:06:18.397Z,29.7230
2019-03-29T13:08:20.391Z,29.6773
2019-03-29T13:10:24.402Z,29.0593
2019-03-29T13:12:26.400Z,28.8716
2019-03-29T13:14:28.392Z,28.4413
2019-03-29T13:16:30.388Z,28.2185
2019-03-29T13:18:32.418Z,28.0064
2019-03-29T13:20:35.399Z,27.8737
2019-03-29T13:22:37.384Z,27.5624
2019-03-29T13:24:39.407Z,27.5944
2019-03-29T13:26:41.396Z,27.4723
2019-03-29T13:28:43.389Z,27.6417
2019-03-29T13:30:45.417Z,28.0858
2019-03-29T13:32:47.400Z,28.3864
2019-03-29T13:34:51.290Z,28.5191
2019-03-29T13:36:53.390Z,28.6671
2019-03-29T13:38:55.404Z,28.8136
2019-03-29T13:40:57.412Z,28.9097
2019-03-29T13:42:59.385Z,29.0410
2019-03-29T13:45:01.390Z,28.7297
2019-03-29T13:47:03.371Z,28.7633
2019-03-29T13:49:05.405Z,28.7480
2019-03-29T13:51:14.579Z,28.8182
2019-03-29T13:53:27.063Z,28.9509
2019-03-29T13:55:30.464Z,28.9860
2019-03-29T13:57:34.412Z,29.0776
2019-03-29T13:59:38.409Z,28.9143
2019-03-29T14:01:50.604Z,28.6488
2019-03-29T14:03:54.392Z,28.9601
2019-03-29T14:05:58.404Z,28.9921
2019-03-29T14:09:36.532Z,29.1920
2019-03-29T14:11:38.446Z,28.8487
2019-03-29T14:13:40.432Z,28.8502
2019-03-29T14:15:43.439Z,28.7312
2019-03-29T14:17:45.435Z,28.8075
2019-03-29T14:19:47.411Z,28.6427
2019-03-29T14:21:49.436Z,28.9677
2019-03-29T14:23:51.430Z,28.6610
2019-03-29T14:25:53.453Z,28.8090
2019-03-29T14:27:55.433Z,28.6610
2019-03-29T14:30:04.214Z,28.7953
2019-03-29T14:32:04.433Z,28.7480
2019-03-29T14:34:06.425Z,28.7083
2019-03-29T14:36:08.411Z,28.3558
2019-03-29T14:38:10.413Z,28.3085
2019-03-29T14:40:12.422Z,28.3238
2019-03-29T14:42:14.421Z,28.3558
2019-03-29T14:44:16.418Z,27.8553
2019-03-29T14:46:18.426Z,28.1086
2019-03-29T14:48:20.421Z,28.0842
2019-03-29T14:50:22.435Z,27.8782
2019-03-29T14:52:24.417Z,28.1025
2019-03-29T14:54:26.416Z,28.1163
2019-03-29T14:56:28.406Z,28.0720
2019-03-29T14:58:30.431Z,27.9973
2019-03-29T15:00:32.421Z,28.0308
2019-03-29T15:02:34.416Z,28.0842
2019-03-29T15:04:36.420Z,28.0430
2019-03-29T15:06:38.398Z,28.1315
2019-03-29T15:08:40.413Z,28.1621
2019-03-29T15:10:45.645Z,28.0766
2019-03-29T15:12:47.424Z,27.8706
2019-03-29T15:14:49.413Z,27.8202
2019-03-29T15:16:51.445Z,27.5914
2019-03-29T15:18:53.405Z,27.6081
2019-03-29T15:20:55.420Z,27.6692
2019-03-29T15:22:57.393Z,27.8935
2019-03-29T15:25:01.400Z,27.6951
2019-03-29T15:27:03.399Z,27.6219
2019-03-29T15:29:05.399Z,27.8111
2019-03-29T15:31:07.411Z,27.6951
2019-03-29T15:33:09.414Z,27.5502
2019-03-29T15:35:11.397Z,27.7012
2019-03-29T15:37:14.475Z,28.0430
2019-03-29T15:39:16.408Z,27.8111
2019-03-29T15:41:18.406Z,27.2847
2019-03-29T15:43:20.441Z,27.4937
2019-03-29T15:45:22.431Z,27.4495
2019-03-29T15:47:24.412Z,27.5090
2019-03-29T15:49:26.420Z,27.4632
2019-03-29T15:51:28.407Z,27.4174
2019-03-29T15:53:30.421Z,27.3762
2019-03-29T15:55:32.421Z,27.3198
2019-03-29T15:57:34.441Z,27.4357
2019-03-29T15:59:36.416Z,27.3030
2019-03-29T16:01:38.920Z,27.3762
2019-03-29T16:03:40.413Z,27.3625
2019-03-29T16:05:42.400Z,27.4495
2019-03-29T16:07:44.404Z,27.4357
2019-03-29T16:09:46.421Z,27.3014
2019-03-29T16:11:48.424Z,27.3472
2019-03-29T16:13:50.419Z,27.0787
2019-03-29T16:15:52.416Z,27.3930
2019-03-29T16:17:54.409Z,27.5120
2019-03-29T16:19:56.432Z,27.4495
2019-03-29T16:21:58.430Z,27.3747
2019-03-29T16:24:00.397Z,27.4937
2019-03-29T16:26:02.417Z,27.4357
2019-03-29T16:28:04.396Z,27.3625
2019-03-29T16:30:06.402Z,27.4632
2019-03-29T16:32:08.396Z,27.4174
2019-03-29T16:34:10.389Z,27.4937
2019-03-29T16:36:12.406Z,27.3426
2019-03-29T16:38:14.404Z,27.2847
2019-03-29T16:40:24.581Z,26.9490
2019-03-29T16:42:36.113Z,26.6209
2019-03-29T16:44:47.624Z,26.3371
2019-03-29T16:46:58.664Z,26.2181
2019-03-29T16:49:02.387Z,26.0655
2019-03-29T16:51:06.408Z,26.0212
2019-03-29T16:53:10.395Z,25.9602
2019-03-29T16:55:14.443Z,25.8381
2019-03-29T16:57:18.405Z,26.0166
2019-03-29T16:59:22.413Z,26.0014
2019-03-29T17:01:26.387Z,26.1036
2019-03-29T17:03:30.385Z,26.2043
2019-03-29T17:05:34.424Z,26.5064
2019-03-29T17:07:38.387Z,26.0670
2019-03-29T17:09:42.382Z,26.3279
2019-03-29T17:11:46.408Z,26.6239
2019-03-29T17:13:50.419Z,26.8940
2019-03-29T17:16:01.705Z,26.5980
2019-03-29T17:18:03.395Z,26.8666
2019-03-29T17:20:07.399Z,26.3874
2019-03-29T17:22:11.410Z,26.7292
2019-03-29T17:24:15.389Z,26.6072
2019-03-29T17:26:19.395Z,26.5293
2019-03-29T17:28:23.415Z,26.6026
2019-03-29T17:30:27.405Z,26.4088
2019-03-29T17:32:31.406Z,26.4240
2019-03-29T17:34:35.403Z,26.4057
2019-03-29T17:36:39.411Z,26.4088
2019-03-29T17:38:43.413Z,26.4637
2019-03-29T17:40:47.421Z,26.4012
2019-03-29T17:42:51.436Z,26.4744
2019-03-29T17:44:58.763Z,26.4607
2019-03-29T17:47:02.397Z,26.5049
2019-03-29T17:49:06.420Z,26.6972
2019-03-29T17:51:10.427Z,26.9627
2019-03-29T17:53:14.413Z,27.0542
2019-03-29T17:55:18.414Z,27.0970
2019-03-29T17:57:22.420Z,27.1733
2019-03-29T17:59:26.404Z,27.2755
2019-03-29T18:01:39.413Z,27.2618
2019-03-29T18:03:51.254Z,27.3075
2019-03-29T18:05:55.417Z,27.3533
2019-03-29T18:07:59.397Z,27.3808
2019-03-29T18:10:03.428Z,27.4250
2019-03-29T18:12:07.493Z,27.5029
2019-03-29T18:14:12.504Z,27.5715
2019-03-29T18:16:29.564Z,27.6188
2019-03-29T18:18:25.403Z,27.5807
2019-03-29T18:20:29.401Z,27.6402
2019-03-29T18:22:33.399Z,27.6371
2019-03-29T18:24:37.438Z,27.6509
2019-03-29T18:26:41.395Z,27.7424
2019-03-29T18:28:45.404Z,27.6967
2019-03-29T18:30:49.399Z,27.7180
2019-03-29T18:32:53.399Z,27.7043
2019-03-29T18:34:57.399Z,27.7317
2019-03-29T18:37:01.398Z,27.6967
2019-03-29T18:39:05.405Z,27.7272
2019-03-29T18:41:09.396Z,27.8462
2019-03-29T18:43:13.403Z,27.7592
2019-03-29T18:45:17.404Z,27.7882
2019-03-29T18:47:21.402Z,27.8233
2019-03-29T18:49:25.490Z,27.7882
2019-03-29T18:51:29.400Z,27.7745
2019-03-29T18:53:33.416Z,27.7012
2019-03-29T18:55:37.412Z,27.8325
2019-03-29T18:57:41.427Z,27.8645
2019-03-29T18:59:45.419Z,27.9057
2019-03-29T19:01:49.459Z,27.9652
2019-03-29T19:03:53.390Z,27.9393
2019-03-29T19:05:57.420Z,27.9210
2019-03-29T19:08:01.390Z,27.9973
2019-03-29T19:10:05.428Z,27.9942
2019-03-29T19:12:09.404Z,28.0125
2019-03-29T19:14:13.420Z,28.0262
2019-03-29T19:16:17.396Z,28.0720
2019-03-29T19:18:21.423Z,28.1025
2019-03-29T19:20:27.688Z,28.1163
2019-03-29T19:22:32.441Z,28.0262
2019-03-29T19:24:36.444Z,28.1270
2019-03-29T19:26:40.458Z,28.1270
2019-03-29T19:28:44.410Z,28.1727
2019-03-29T19:30:48.418Z,28.1437
2019-03-29T19:32:52.420Z,28.1132
2019-03-29T19:34:56.417Z,28.0842
2019-03-29T19:37:01.665Z,28.1392
2019-03-29T19:39:05.408Z,28.1575
2019-03-29T19:41:09.402Z,28.1132
2019-03-29T19:43:13.422Z,28.0934
2019-03-29T19:45:17.409Z,28.0812
2019-03-29T19:47:21.390Z,28.1682
2019-03-29T19:49:25.421Z,28.1407
2019-03-29T19:51:29.409Z,28.1529
2019-03-29T19:53:34.463Z,28.1666
2019-03-29T19:55:38.418Z,28.1849
2019-03-29T19:57:42.431Z,28.1849
2019-03-29T19:59:48.196Z,28.1682
2019-03-29T20:01:52.453Z,28.2094
2019-03-29T20:03:56.406Z,28.1804
2019-03-29T20:06:00.416Z,28.2094
2019-03-29T20:08:04.430Z,28.1773
2019-03-29T20:10:08.418Z,28.2643
2019-03-29T20:12:12.487Z,28.1453
2019-03-29T20:14:16.395Z,28.1315
2019-03-29T20:16:20.413Z,28.2185
2019-03-29T20:18:24.432Z,28.2216
2019-03-29T20:20:28.473Z,28.1865
2019-03-29T20:22:32.397Z,28.2765
2019-03-29T20:24:36.421Z,28.2857
2019-03-29T20:26:40.402Z,28.2689
2019-03-29T20:28:44.412Z,28.3268
2019-03-29T20:30:48.441Z,28.3726
2019-03-29T20:32:52.403Z,28.2994
2019-03-29T20:34:56.396Z,28.3955
2019-03-29T20:37:00.422Z,28.3330
2019-03-29T20:39:04.412Z,28.3330
2019-03-29T20:41:08.431Z,28.3772
2019-03-29T20:43:12.396Z,28.4642
2019-03-29T20:45:16.398Z,28.3879
2019-03-29T20:47:20.404Z,28.4794
2019-03-29T20:49:24.406Z,28.4932
2019-03-29T20:51:28.438Z,28.5206
2019-03-29T20:53:32.409Z,28.3879
2019-03-29T20:55:36.413Z,28.3696
2019-03-29T20:57:40.433Z,28.3864
2019-03-29T20:59:44.411Z,28.2231
2019-03-29T21:01:48.424Z,28.1621
2019-03-29T21:03:52.410Z,28.1727
2019-03-29T21:05:56.421Z,28.2734
2019-03-29T21:08:00.418Z,28.3330
2019-03-29T21:10:04.419Z,28.4230
2019-03-29T21:12:08.430Z,28.4062
2019-03-29T21:14:12.419Z,28.5969
2019-03-29T21:16:16.425Z,28.6290
2019-03-29T21:18:20.403Z,28.6534
2019-03-29T21:20:24.451Z,28.7160
2019-03-29T21:22:28.425Z,28.7297
2019-03-29T21:24:32.419Z,28.7266
2019-03-29T21:26:36.432Z,28.7266
2019-03-29T21:28:40.418Z,28.8441
2019-03-29T21:30:44.399Z,28.8594
2019-03-29T21:32:48.438Z,28.8594
2019-03-29T21:34:52.414Z,28.9174
2019-03-29T21:36:56.457Z,28.9738
2019-03-29T21:39:00.412Z,28.8716
2019-03-29T21:41:04.402Z,28.8991
2019-03-29T21:43:08.422Z,28.8670
2019-03-29T21:45:12.404Z,28.9693
2019-03-29T21:47:16.381Z,28.9403
2019-03-29T21:49:20.404Z,28.9998
2019-03-29T21:51:24.381Z,28.9540
2019-03-29T21:53:28.413Z,28.9677
2019-03-29T21:55:32.415Z,29.0272
2019-03-29T21:57:36.430Z,28.9677
2019-03-29T21:59:40.416Z,28.9967
2019-03-29T22:01:44.414Z,28.9952
2019-03-29T22:03:48.421Z,29.0517
2019-03-29T22:05:52.430Z,29.0227
2019-03-29T22:07:56.414Z,29.0517
2019-03-29T22:10:00.413Z,29.0196
2019-03-29T22:12:04.420Z,29.0929
2019-03-29T22:14:08.428Z,29.0776
2019-03-29T22:16:12.419Z,29.1203
2019-03-29T22:18:16.422Z,29.0013
2019-03-29T22:20:20.500Z,29.0471
2019-03-29T22:22:24.438Z,29.0318
2019-03-29T22:24:28.425Z,29.0455
2019-03-29T22:26:32.428Z,29.0471
2019-03-29T22:28:36.412Z,28.9967
2019-03-29T22:30:40.418Z,29.0455
2019-03-29T22:32:44.423Z,29.0288
2019-03-29T22:34:48.414Z,28.9509
2019-03-29T22:36:52.411Z,29.0562
2019-03-29T22:38:56.415Z,29.0379
2019-03-29T22:41:00.394Z,28.9921
2019-03-29T22:43:07.325Z,28.9326
2019-03-29T22:45:11.432Z,29.0379
2019-03-29T22:47:15.406Z,29.0089
2019-03-29T22:49:19.420Z,28.9464
2019-03-29T22:51:23.423Z,28.9906
2019-03-29T22:53:27.427Z,28.9448
2019-03-29T22:55:31.404Z,28.9418
2019-03-29T22:57:35.422Z,28.9586
2019-03-29T22:59:39.431Z,29.0150
2019-03-29T23:01:43.410Z,28.9738
2019-03-29T23:03:47.417Z,28.9555
2019-03-29T23:05:51.428Z,28.9860
2019-03-29T23:07:55.414Z,28.9830
2019-03-29T23:09:59.415Z,29.0105
2019-03-29T23:12:03.429Z,28.9830
2019-03-29T23:14:07.410Z,28.9235
2019-03-29T23:16:11.426Z,28.9372
2019-03-29T23:18:15.418Z,28.9921
2019-03-29T23:20:19.425Z,28.9784
2019-03-29T23:22:23.437Z,28.9174
2019-03-29T23:24:27.411Z,28.9647
2019-03-29T23:26:31.418Z,28.9464
2019-03-29T23:28:35.415Z,29.0059
2019-03-29T23:30:39.429Z,28.9906
2019-03-29T23:32:43.414Z,29.0364
2019-03-29T23:34:47.413Z,29.0364
2019-03-29T23:36:51.423Z,29.0608
2019-03-29T23:38:55.422Z,29.0608
2019-03-29T23:40:59.417Z,28.9723
2019-03-29T23:43:03.424Z,29.0745
2019-03-29T23:45:07.419Z,29.0318
2019-03-29T23:47:11.422Z,29.0425
2019-03-29T23:49:21.359Z,29.0135
2019-03-29T23:51:24.420Z,29.0135
2019-03-29T23:53:28.426Z,29.0410
2019-03-29T23:55:32.427Z,28.9815
2019-03-29T23:57:36.427Z,29.0105
2019-03-29T23:59:40.441Z,29.0364
